• Join FlightAware (Why Join?)
  • Login
  • US Flag 
Rudolph Flight #1: Arrived! 
07:53AM EST


 

Airport Tracker/Info


-or-


 

Live Flight TrackerFlight Track Log ✈ UAL4180 ✈ 22-Apr-2013 ✈ KIAH - KMKE

Flight Track Log - Related Links

Times and Time Zones

All times are in EDT time to prevent confusion due to time zone crossing. See the UAL4180 flight status page for this flight to view local times or setup timezone preferences in your user account.

Time Position Orientation Groundspeed Altitude Reporting Facility
EDT Latitude Longitude Course Direction KTS MPH feet Rate Location/Type
12:14PM 29.9786 -95.2981 30° Northeast 159 183 800  Level Houston Center
12:15PM 30.0289 -95.2533 38° Northeast 205 236 3,100 1,440 Climbing Houston Center
12:16PM 30.0361 -95.2497 23° Northeast 199 229 3,200 1,620 Climbing Houston Center
12:17PM 30.2998 -95.2024 14° North  Level FlightAware Approximate
12:17PM 30.0956 -95.2236 21° North 266 306 4,800  Level Houston Center
12:17PM 30.1161 -95.2175 14° North 247 284 5,500 2,400 Climbing Houston Center
12:18PM 30.4069 -95.1632 23° Northeast  Level FlightAware Approximate
12:18PM 30.1647 -95.1981 19° North 264 304 7,300  Level Houston Center
12:18PM 30.1856 -95.1917 15° North 262 302 8,000 2,340 Climbing Houston Center
12:19PM 30.5078 -95.1053 27° Northeast  Level FlightAware Approximate
12:19PM 30.2383 -95.1769 14° North 255 293 9,700  Level Houston Center
12:19PM 30.2550 -95.1736 10° North 255 293 10,200 1,020 Climbing Houston Center
12:20PM 30.6059 -95.0461 30° Northeast  Level FlightAware Approximate
12:20PM 30.3297 -95.1533 13° North 275 316 11,100  Level Houston Center
12:21PM 30.4147 -95.1272 15° North 312 359 12,100 1,020 Climbing Houston Center
12:22PM 30.5208 -95.0953 15° North 335 386 13,300 1,020 Climbing Houston Center
12:23PM 30.6147 -95.0597 18° North 350 403 14,300 960 Climbing Houston Center
12:24PM 30.7075 -95.0008 29° Northeast 376 433 15,300 1,080 Climbing Houston Center
12:25PM 30.8006 -94.9433 28° Northeast 377 434 16,600 1,080 Climbing Houston Center
12:26PM 30.8925 -94.8856 28° Northeast 375 432 17,600 900 Climbing Houston Center
12:27PM 30.9886 -94.8256 28° Northeast 369 425 18,400 840 Climbing Fort Worth Center
12:28PM 31.0833 -94.7669 28° Northeast 369 425 19,300 900 Climbing Fort Worth Center
12:29PM 31.1842 -94.7036 28° Northeast 382 440 20,300 900 Climbing Fort Worth Center
12:30PM 31.2767 -94.6375 31° Northeast 388 447 21,200 900 Climbing Fort Worth Center
12:31PM 31.3756 -94.5739 29° Northeast 393 452 22,100 960 Climbing Fort Worth Center
12:32PM 31.4658 -94.5078 32° Northeast 406 467 23,200 1,200 Climbing Fort Worth Center
12:33PM 31.5603 -94.4414 31° Northeast 406 467 24,600 1,200 Climbing Fort Worth Center
12:34PM 31.6528 -94.3775 30° Northeast 394 453 25,700 1,140 Climbing Fort Worth Center
12:35PM 31.7453 -94.3108 31° Northeast 389 448 26,900 1,080 Climbing Fort Worth Center
12:36PM 31.8375 -94.2492 30° Northeast 389 448 27,900 900 Climbing Fort Worth Center
12:37PM 31.9256 -94.1850 32° Northeast 376 433 28,800 900 Climbing Fort Worth Center
12:38PM 32.0161 -94.1253 29° Northeast 371 427 29,700 900 Climbing Fort Worth Center
12:39PM 32.1042 -94.0608 32° Northeast 371 427 30,600 900 Climbing Fort Worth Center
12:40PM 32.1942 -93.9914 33° Northeast 371 427 31,600 1,020 Climbing Fort Worth Center
12:41PM 32.2864 -93.9289 30° Northeast 371 427 32,700 780 Climbing Fort Worth Center
12:42PM 32.3761 -93.8614 32° Northeast 371 427 33,200 660 Climbing Fort Worth Center
12:43PM 32.4703 -93.7936 31° Northeast 376 433 34,100 900 Climbing Fort Worth Center
12:44PM 32.5625 -93.7283 31° Northeast 376 433 35,000 420 Climbing Fort Worth Center
12:45PM 32.6586 -93.6628 30° Northeast 376 433 35,000  Level Fort Worth Center
12:46PM 32.7586 -93.5919 31° Northeast 388 447 35,000  Level Fort Worth Center
12:47PM 32.8608 -93.5183 31° Northeast 411 473 35,000  Level Fort Worth Center
12:48PM 32.9669 -93.4419 31° Northeast 424 488 35,000  Level Fort Worth Center
12:49PM 33.0750 -93.3653 31° Northeast 439 505 35,000  Level Fort Worth Center
12:51PM 33.2717 -93.2244 31° Northeast 445 512 35,000  Level Memphis Center
12:52PM 33.3778 -93.1483 31° Northeast 440 506 35,000  Level Memphis Center
12:53PM 33.4944 -93.0625 32° Northeast 440 506 35,000  Level Memphis Center
12:54PM 33.5983 -92.9858 32° Northeast 433 498 35,000  Level Memphis Center
12:55PM 33.7022 -92.9117 31° Northeast 433 498 35,000  Level Memphis Center
12:56PM 33.8081 -92.8322 32° Northeast 433 498 35,000  Level Memphis Center
12:57PM 33.9158 -92.7603 29° Northeast 440 506 35,000  Level Memphis Center
12:58PM 34.0175 -92.6803 33° Northeast 435 501 35,000  Level Memphis Center
12:59PM 34.1086 -92.6075 33° Northeast 429 494 35,000  Level Memphis Center
01:00PM 34.2125 -92.5272 33° Northeast 429 494 35,000  Level Memphis Center
01:01PM 34.3158 -92.4519 31° Northeast 429 494 35,000  Level Memphis Center
01:02PM 34.4153 -92.3789 31° Northeast 429 494 35,000  Level Memphis Center
01:03PM 34.5144 -92.3006 33° Northeast 429 494 35,000  Level Memphis Center
01:04PM 34.6158 -92.2269 31° Northeast 424 488 35,000  Level Memphis Center
01:05PM 34.7317 -92.1589 26° Northeast 418 481 35,000  Level Memphis Center
01:06PM 34.8386 -92.1181 17° North 407 468 35,000  Level Memphis Center
01:07PM 34.9497 -92.0772 17° North 407 468 35,000  Level Memphis Center
01:08PM 35.0586 -92.0339 18° North 407 468 35,000  Level Memphis Center
01:09PM 35.1700 -91.9878 19° North 407 468 35,000  Level Memphis Center
01:10PM 35.2831 -91.9469 16° North 412 474 35,000  Level Memphis Center
01:11PM 35.3942 -91.9031 18° North 412 474 35,000  Level Memphis Center
01:12PM 35.5031 -91.8592 18° North 412 474 35,000  Level Memphis Center
01:13PM 35.6183 -91.8178 16° North 412 474 35,000  Level Memphis Center
01:14PM 35.7272 -91.7736 18° North 412 474 35,000  Level Memphis Center
01:15PM 35.8425 -91.7297 17° North 417 480 35,000  Level Memphis Center
01:16PM 35.9514 -91.6828 19° North 417 480 35,000  Level Memphis Center
01:17PM 36.0644 -91.6408 17° North 422 486 35,000  Level Memphis Center
01:18PM 36.1775 -91.5964 18° North 422 486 35,000  Level Memphis Center
01:19PM 36.2928 -91.5492 18° North 427 491 35,000  Level Memphis Center
01:20PM 36.4097 -91.5019 18° North 427 491 35,000  Level Memphis Center
01:22PM 36.6517 -91.4033 18° North 429 494 35,000  Level Kansas City Center
01:23PM 36.7686 -91.3561 18° North 436 502 35,000  Level Kansas City Center
01:24PM 36.8844 -91.3089 18° North 437 503 35,000  Level Kansas City Center
01:25PM 37.0233 -91.2533 18° North 437 503 35,000  Level Kansas City Center
01:26PM 37.1406 -91.2033 19° North 441 507 35,000  Level Kansas City Center
01:27PM 37.2547 -91.1561 18° North 436 502 35,000  Level Kansas City Center
01:28PM 37.3692 -91.1089 18° North 433 498 35,000  Level Kansas City Center
01:29PM 37.4811 -91.0553 21° North 432 497 35,000  Level Kansas City Center
01:30PM 37.5914 -90.9847 27° Northeast 440 506 35,000  Level Kansas City Center
01:31PM 37.7164 -90.9075 26° Northeast 443 510 35,000  Level Kansas City Center
01:32PM 37.8261 -90.8367 27° Northeast 444 511 35,000  Level Kansas City Center
01:33PM 37.9361 -90.7669 27° Northeast 443 510 35,000  Level Kansas City Center
01:35PM 38.0453 -90.6956 27° Northeast 443 510 35,000  Level Kansas City Center
01:36PM 38.1536 -90.6253 27° Northeast 440 506 35,000  Level Kansas City Center
01:37PM 38.2842 -90.5417 27° Northeast 439 505 35,000  Level Kansas City Center
01:38PM 38.3933 -90.4711 27° Northeast 441 507 35,000  Level Kansas City Center
01:39PM 38.5108 -90.3944 27° Northeast 436 502 35,000  Level Kansas City Center
01:40PM 38.6078 -90.3311 27° Northeast 439 505 35,000  Level Kansas City Center
01:41PM 38.7281 -90.2553 26° Northeast 432 497 35,000  Level Kansas City Center
01:42PM 38.8319 -90.1872 27° Northeast 422 486 35,000  Level Kansas City Center
01:43PM 38.9383 -90.1164 27° Northeast 422 486 35,000  Level Kansas City Center
01:44PM 39.0411 -90.0469 28° Northeast 419 482 35,000  Level Kansas City Center
01:45PM 39.1594 -89.9686 27° Northeast 416 479 35,000  Level Kansas City Center
01:46PM 39.2667 -89.8964 28° Northeast 416 479 35,000  Level Kansas City Center
01:47PM 39.3678 -89.8283 27° Northeast 412 474 35,000  Level Kansas City Center
01:48PM 39.4689 -89.7608 27° Northeast 410 472 35,000  Level Kansas City Center
01:49PM 39.5697 -89.6939 27° Northeast 409 471 35,000  Level Kansas City Center
01:51PM 39.7825 -89.5494 28° Northeast 407 468 35,000  Level Kansas City Center
01:52PM 39.8831 -89.4814 27° Northeast 408 470 35,000  Level Kansas City Center
01:53PM 39.9844 -89.4125 27° Northeast 410 472 35,000  Level Kansas City Center
01:54PM 40.0842 -89.3442 28° Northeast 408 470 35,000  Level Kansas City Center
01:55PM 40.2042 -89.2625 27° Northeast 408 470 35,000 -420 Level Kansas City Center
01:56PM 40.3028 -89.1947 28° Northeast 406 467 34,200 -960 Descending Chicago Center
01:57PM 40.4061 -89.1233 28° Northeast 418 481 33,000 -600 Descending Chicago Center
01:58PM 40.5289 -89.0364 28° Northeast 420 483 33,000  Level Chicago Center
01:59PM 40.6311 -88.9656 28° Northeast 418 481 33,000  Level Chicago Center
02:00PM 40.7353 -88.8928 28° Northeast 424 488 33,000  Level Chicago Center
02:01PM 40.8467 -88.8153 28° Northeast 424 488 33,000  Level Chicago Center
02:02PM 40.9492 -88.7411 29° Northeast 424 488 33,000  Level Chicago Center
02:04PM 41.0531 -88.6692 28° Northeast 422 486 33,000  Level Chicago Center
02:05PM 41.1558 -88.5967 28° Northeast 419 482 33,000  Level Chicago Center
02:06PM 41.2803 -88.5081 28° Northeast 422 486 33,000 -1,140 Level Chicago Center
02:07PM 41.3842 -88.4344 28° Northeast 420 483 30,700 -2,400 Descending Chicago Center
02:08PM 41.4886 -88.3592 28° Northeast 423 487 28,100 -2,520 Descending Chicago Center
02:09PM 41.6036 -88.3181 15° North 436 502 25,600 -2,040 Descending Chicago Center
02:10PM 41.7294 -88.3150 North 449 517 24,000 -1,620 Descending Chicago Center
02:11PM 41.8547 -88.3131 North 450 518 22,300 -1,500 Descending Chicago Center
02:12PM 41.9758 -88.3119 360° North 438 504 21,000 -1,320 Descending Chicago Center
02:13PM 42.0925 -88.3108 360° North 423 487 19,600 -1,860 Descending Chicago Center
02:14PM 42.2289 -88.3086 North 411 473 17,200 -1,800 Descending Chicago Center
02:15PM 42.3447 -88.3081 360° North 406 467 15,900 -2,220 Descending Chicago Center
02:16PM 42.4517 -88.3067 North 387 445 12,700 -2,340 Descending Chicago Center
02:17PM 42.5539 -88.3061 360° North 367 422 11,100 -1,500 Descending Chicago Center
02:18PM 42.6400 -88.3039 North 315 362 9,600 -1,320 Descending Chicago Center
02:19PM 42.7233 -88.3022 North 300 345 8,400 -1,620 Descending Chicago Center
02:20PM 42.8108 -88.2689 16° North 287 330 6,300 -1,800 Descending Chicago Center
02:21PM 42.8481 -88.1825 60° Northeast 267 307 4,800 -1,260 Descending Chicago Center
02:22PM 42.8819 -88.1006 61° Northeast 258 297 3,700 -1,200 Descending Chicago Center
02:23PM 42.9000 -88.0667 54° Northeast 213 245 3,000 -1,140 Descending KMKE
02:24PM 42.9167 -88.0000 71° East 159 183 2,000 -1,020 Descending KMKE